createdAt,value
2022-11-07T00:03:04.890Z,8.48
2022-11-07T00:08:06.820Z,8.49
2022-11-07T00:13:14.476Z,8.51
2022-11-07T00:18:16.608Z,8.53
2022-11-07T00:23:18.472Z,8.55
2022-11-07T00:28:20.416Z,8.56
2022-11-07T00:33:22.325Z,8.56
2022-11-07T00:38:24.169Z,8.57
2022-11-07T00:43:26.426Z,8.56
2022-11-07T00:48:29.083Z,8.54
2022-11-07T00:53:30.909Z,8.50
2022-11-07T00:58:33.147Z,8.50
2022-11-07T01:03:53.859Z,8.53
2022-11-07T01:08:56.766Z,8.54
2022-11-07T01:14:01.206Z,8.52
2022-11-07T01:19:03.784Z,8.53
2022-11-07T01:24:08.305Z,8.54
2022-11-07T01:29:11.000Z,8.53
2022-11-07T01:34:13.659Z,8.53
2022-11-07T01:39:15.537Z,8.54
2022-11-07T01:44:17.363Z,8.50
2022-11-07T01:49:35.192Z,8.52
2022-11-07T01:54:44.628Z,8.53
2022-11-07T01:59:47.448Z,8.54
2022-11-07T02:04:49.429Z,8.55
2022-11-07T02:09:53.375Z,8.57
2022-11-07T02:14:56.466Z,8.57
2022-11-07T02:19:58.498Z,8.57
2022-11-07T02:25:09.219Z,8.57
2022-11-07T02:30:20.619Z,8.52
2022-11-07T02:35:37.487Z,8.50
2022-11-07T02:40:40.411Z,8.54
2022-11-07T02:45:45.309Z,8.55
2022-11-07T02:50:47.322Z,8.54
2022-11-07T02:55:49.202Z,8.51
2022-11-07T03:00:51.052Z,8.51
2022-11-07T03:05:52.943Z,8.48
2022-11-07T03:10:54.970Z,8.45
2022-11-07T03:15:57.006Z,8.43
2022-11-07T03:20:58.906Z,8.36
2022-11-07T03:26:00.724Z,8.27
2022-11-07T03:31:04.405Z,8.15
2022-11-07T03:36:06.550Z,8.04
2022-11-07T03:41:08.543Z,7.94
2022-11-07T03:46:10.464Z,7.84
2022-11-07T03:51:12.608Z,7.75
2022-11-07T03:56:14.427Z,7.68
2022-11-07T04:01:16.330Z,7.60
2022-11-07T04:06:18.263Z,7.51
2022-11-07T04:11:39.149Z,7.43
2022-11-07T04:17:02.377Z,7.36
2022-11-07T04:22:04.198Z,7.30
2022-11-07T04:27:24.893Z,7.24
2022-11-07T04:32:26.721Z,7.17
2022-11-07T04:37:28.529Z,7.12
2022-11-07T04:42:30.394Z,7.08
2022-11-07T04:47:36.430Z,7.03
2022-11-07T04:52:41.477Z,7.00
2022-11-07T04:57:43.403Z,6.98
2022-11-07T05:02:46.529Z,6.94
2022-11-07T05:07:48.721Z,6.87
2022-11-07T05:12:51.023Z,6.85
2022-11-07T05:17:52.854Z,6.82
2022-11-07T05:23:14.726Z,6.79
2022-11-07T05:28:30.288Z,6.78
2022-11-07T05:33:36.131Z,6.81
2022-11-07T05:38:40.478Z,6.87
2022-11-07T05:43:42.528Z,7.01
2022-11-07T05:48:44.414Z,7.16
2022-11-07T05:53:46.213Z,7.28
2022-11-07T05:58:48.030Z,7.37
2022-11-07T06:03:49.817Z,7.44
2022-11-07T06:08:51.626Z,7.53
2022-11-07T06:13:54.721Z,7.61
2022-11-07T06:18:57.010Z,7.67
2022-11-07T06:23:59.482Z,7.73
2022-11-07T06:29:01.320Z,7.79
2022-11-07T06:34:03.223Z,7.88
2022-11-07T06:39:07.559Z,7.96
2022-11-07T06:44:09.331Z,8.02
2022-11-07T06:49:11.403Z,8.10
2022-11-07T06:54:13.505Z,8.14
2022-11-07T06:59:17.417Z,8.19
2022-11-07T07:04:25.766Z,8.25
2022-11-07T07:09:33.439Z,8.31
2022-11-07T07:14:35.213Z,8.36
2022-11-07T07:19:38.527Z,8.41
2022-11-07T07:24:40.463Z,8.46
2022-11-07T07:29:42.362Z,8.49
2022-11-07T07:34:44.184Z,8.53
2022-11-07T07:39:47.091Z,8.61
2022-11-07T07:44:51.210Z,8.69
2022-11-07T07:49:53.018Z,8.76
2022-11-07T07:54:56.235Z,8.83
2022-11-07T08:00:00.427Z,8.87
2022-11-07T08:05:05.391Z,8.93
2022-11-07T08:10:35.032Z,8.94
2022-11-07T08:15:33.964Z,8.97
2022-11-07T08:20:35.829Z,9.03
2022-11-07T08:25:39.344Z,9.15
2022-11-07T08:31:04.294Z,9.30
2022-11-07T08:36:07.469Z,9.41
2022-11-07T08:41:09.502Z,9.50
2022-11-07T08:46:11.447Z,9.60
2022-11-07T08:51:13.285Z,9.67
2022-11-07T08:56:17.237Z,9.76
2022-11-07T09:01:19.422Z,9.82
2022-11-07T09:06:23.883Z,9.84
2022-11-07T09:11:26.789Z,9.88
2022-11-07T09:16:28.619Z,9.96
2022-11-07T09:21:32.341Z,9.98
2022-11-07T09:26:34.258Z,9.98
2022-11-07T09:31:36.462Z,9.96
2022-11-07T09:36:38.328Z,10.00
2022-11-07T09:42:03.472Z,9.96
2022-11-07T09:47:19.353Z,9.94
2022-11-07T09:52:41.227Z,9.99
2022-11-07T09:57:43.186Z,10.12
2022-11-07T10:02:56.721Z,10.14
2022-11-07T10:08:07.123Z,10.17
2022-11-07T10:13:27.884Z,10.20
2022-11-07T10:18:38.909Z,10.30
2022-11-07T10:23:43.444Z,10.43
2022-11-07T10:28:49.114Z,10.59
2022-11-07T10:34:05.051Z,10.75
2022-11-07T10:39:16.823Z,10.77
2022-11-07T10:44:25.143Z,10.80
2022-11-07T10:49:32.222Z,10.90
2022-11-07T10:54:34.124Z,11.04
2022-11-07T10:59:40.163Z,11.12
2022-11-07T11:04:51.005Z,11.22
2022-11-07T11:09:55.981Z,11.32
2022-11-07T11:15:04.087Z,11.41
2022-11-07T11:20:09.561Z,11.59
2022-11-07T11:25:11.447Z,11.66
2022-11-07T11:30:22.532Z,11.72
2022-11-07T11:35:43.599Z,11.79
2022-11-07T11:40:59.255Z,11.78
2022-11-07T11:46:16.688Z,11.85
2022-11-07T11:51:38.988Z,11.97
2022-11-07T11:56:43.573Z,12.00
2022-11-07T12:01:55.702Z,12.05
2022-11-07T12:07:25.813Z,12.11
2022-11-07T12:12:46.612Z,12.11
2022-11-07T12:18:07.064Z,12.04
2022-11-07T12:23:39.895Z,12.06
2022-11-07T12:29:03.451Z,12.13
2022-11-07T12:34:36.107Z,12.21
2022-11-07T12:40:01.375Z,12.26
2022-11-07T12:45:03.233Z,12.26
2022-11-07T12:50:22.336Z,12.25
2022-11-07T12:55:33.011Z,12.27
2022-11-07T13:00:35.759Z,12.15
2022-11-07T13:06:03.017Z,12.07
2022-11-07T13:11:23.500Z,12.04
2022-11-07T13:16:30.658Z,12.10
2022-11-07T13:21:43.047Z,12.27
2022-11-07T13:26:47.433Z,12.38
2022-11-07T13:32:14.308Z,12.39
2022-11-07T13:37:20.267Z,12.38
2022-11-07T13:42:28.555Z,12.31
2022-11-07T13:47:40.593Z,12.24
2022-11-07T13:53:05.056Z,12.20
2022-11-07T13:58:14.500Z,12.09
2022-11-07T14:03:29.533Z,12.02
2022-11-07T14:08:35.699Z,11.93
2022-11-07T14:13:41.570Z,11.79
2022-11-07T14:18:52.267Z,11.66
2022-11-07T14:23:54.555Z,11.52
2022-11-07T14:28:58.008Z,11.40
2022-11-07T14:34:22.150Z,11.33
2022-11-07T14:39:34.338Z,11.27
2022-11-07T14:44:54.407Z,11.19
2022-11-07T14:49:57.879Z,11.04
2022-11-07T14:55:30.971Z,10.91
2022-11-07T15:00:35.309Z,10.76
2022-11-07T15:05:37.147Z,10.60
2022-11-07T15:10:39.897Z,10.40
2022-11-07T15:15:41.790Z,10.22
2022-11-07T15:20:43.719Z,10.05
2022-11-07T15:25:59.765Z,9.88
2022-11-07T15:31:01.684Z,9.76
2022-11-07T15:36:03.692Z,9.64
2022-11-07T15:41:05.754Z,9.50
2022-11-07T15:46:30.850Z,9.36
2022-11-07T15:51:33.035Z,9.25
2022-11-07T15:56:34.884Z,9.12
2022-11-07T16:01:36.796Z,9.03
2022-11-07T16:06:45.663Z,8.92
2022-11-07T16:11:50.265Z,8.83
2022-11-07T16:16:53.028Z,8.80
2022-11-07T16:21:54.859Z,8.75
2022-11-07T16:26:57.211Z,8.71
2022-11-07T16:31:59.102Z,8.63
2022-11-07T16:37:01.213Z,8.53
2022-11-07T16:42:05.496Z,8.42
2022-11-07T16:47:13.873Z,8.32
2022-11-07T16:52:18.223Z,8.24
2022-11-07T16:57:20.063Z,8.15
2022-11-07T17:02:24.662Z,8.06
2022-11-07T17:07:26.704Z,7.98
2022-11-07T17:12:28.635Z,7.91
2022-11-07T17:17:30.667Z,7.84
2022-11-07T17:22:32.458Z,7.77
2022-11-07T17:27:34.417Z,7.69
2022-11-07T17:32:36.237Z,7.61
2022-11-07T17:37:38.778Z,7.53
2022-11-07T17:42:40.575Z,7.46
2022-11-07T17:47:45.031Z,7.39
2022-11-07T17:52:47.913Z,7.30
2022-11-07T17:57:49.808Z,7.20
2022-11-07T18:02:52.757Z,7.11
2022-11-07T18:07:54.869Z,7.03
2022-11-07T18:12:57.343Z,6.99
2022-11-07T18:17:59.344Z,6.95
2022-11-07T18:23:01.255Z,6.88
2022-11-07T18:28:03.712Z,6.85
2022-11-07T18:33:05.494Z,6.82
2022-11-07T18:38:07.305Z,6.80
2022-11-07T18:43:11.787Z,6.79
2022-11-07T18:48:14.297Z,6.80
2022-11-07T18:53:17.584Z,6.80
2022-11-07T18:58:20.365Z,6.79
2022-11-07T19:03:22.702Z,6.77
2022-11-07T19:08:24.486Z,6.75
2022-11-07T19:13:27.111Z,6.71
2022-11-07T19:18:28.963Z,6.66
2022-11-07T19:23:31.444Z,6.63
2022-11-07T19:28:35.041Z,6.61
2022-11-07T19:33:37.113Z,6.60
2022-11-07T19:38:38.974Z,6.58
2022-11-07T19:43:42.724Z,6.58
2022-11-07T19:48:44.696Z,6.59
2022-11-07T19:53:46.553Z,6.59
2022-11-07T19:58:48.447Z,6.56
2022-11-07T20:03:52.576Z,6.53
2022-11-07T20:08:54.649Z,6.49
2022-11-07T20:14:01.780Z,6.46
2022-11-07T20:19:05.752Z,6.46
2022-11-07T20:24:11.026Z,6.48
2022-11-07T20:29:13.893Z,6.47
2022-11-07T20:34:19.130Z,6.41
2022-11-07T20:39:21.293Z,6.33
2022-11-07T20:44:23.182Z,6.26
2022-11-07T20:49:25.031Z,6.20
2022-11-07T20:54:29.521Z,6.11
2022-11-07T20:59:32.319Z,6.03
2022-11-07T21:04:49.849Z,5.97
2022-11-07T21:09:56.088Z,5.93
2022-11-07T21:14:57.915Z,5.90
2022-11-07T21:19:59.783Z,5.92
2022-11-07T21:25:04.187Z,5.95
2022-11-07T21:30:07.127Z,5.96
2022-11-07T21:35:09.915Z,5.97
2022-11-07T21:40:12.033Z,5.99
2022-11-07T21:45:13.918Z,6.04
2022-11-07T21:50:42.515Z,6.08
2022-11-07T21:55:39.674Z,6.10
2022-11-07T22:00:41.511Z,6.13
2022-11-07T22:05:44.106Z,6.15
2022-11-07T22:10:46.013Z,6.14
2022-11-07T22:15:49.939Z,6.10
2022-11-07T22:20:55.565Z,6.07
2022-11-07T22:26:10.256Z,6.05
2022-11-07T22:31:15.865Z,6.01
2022-11-07T22:36:18.646Z,5.94
2022-11-07T22:41:25.043Z,5.88
2022-11-07T22:46:30.702Z,5.81
2022-11-07T22:51:35.057Z,5.76
2022-11-07T22:56:37.381Z,5.69
2022-11-07T23:01:42.015Z,5.63
2022-11-07T23:06:44.343Z,5.58
2022-11-07T23:11:47.933Z,5.54
2022-11-07T23:16:53.024Z,5.50
2022-11-07T23:21:56.637Z,5.48
2022-11-07T23:26:59.262Z,5.46
2022-11-07T23:32:01.067Z,5.43
2022-11-07T23:37:03.313Z,5.40
2022-11-07T23:42:05.124Z,5.39
2022-11-07T23:47:27.825Z,5.37
2022-11-07T23:52:29.617Z,5.36
2022-11-07T23:57:56.522Z,5.34
